createdAt,value
2018-09-09T00:01:22.664Z,100623.90
2018-09-09T00:03:50.745Z,100625.94
2018-09-09T00:06:18.878Z,100633.00
2018-09-09T00:08:47.027Z,100634.86
2018-09-09T00:11:15.061Z,100633.57
2018-09-09T00:13:43.138Z,100634.48
2018-09-09T00:16:11.200Z,100644.61
2018-09-09T00:18:39.389Z,100644.55
2018-09-09T00:21:07.632Z,100641.25
2018-09-09T00:23:35.733Z,100642.98
2018-09-09T00:26:03.852Z,100634.98
2018-09-09T00:28:32.020Z,100635.38
2018-09-09T00:31:00.285Z,100627.39
2018-09-09T00:33:29.342Z,100629.47
2018-09-09T00:35:58.742Z,100622.28
2018-09-09T00:38:27.075Z,100620.98
2018-09-09T00:40:55.160Z,100617.28
2018-09-09T00:43:23.291Z,100623.37
2018-09-09T00:45:51.563Z,100616.73
2018-09-09T00:48:19.692Z,100615.48
2018-09-09T00:50:53.152Z,100618.76
2018-09-09T00:53:26.620Z,100611.92
2018-09-09T00:55:54.781Z,100611.41
2018-09-09T00:58:22.910Z,100616.63
2018-09-09T01:00:57.069Z,100616.83
2018-09-09T01:03:25.215Z,100631.81
2018-09-09T01:05:53.367Z,100631.66
2018-09-09T01:08:21.551Z,100631.07
2018-09-09T01:10:49.672Z,100628.27
2018-09-09T01:13:17.779Z,100634.59
2018-09-09T01:15:45.973Z,100631.34
2018-09-09T01:18:14.042Z,100643.88
2018-09-09T01:20:43.262Z,100628.17
2018-09-09T01:23:11.363Z,100635.52
2018-09-09T01:25:39.460Z,100636.45
2018-09-09T01:28:07.559Z,100636.03
2018-09-09T01:30:35.666Z,100635.17
2018-09-09T01:33:03.782Z,100634.73
2018-09-09T01:35:32.096Z,100635.69
2018-09-09T01:38:00.220Z,100632.00
2018-09-09T01:40:28.864Z,100629.00
2018-09-09T01:42:56.942Z,100627.87
2018-09-09T01:45:25.055Z,100628.17
2018-09-09T01:47:53.138Z,100622.84
2018-09-09T01:50:21.303Z,100625.80
2018-09-09T01:52:49.383Z,100629.80
2018-09-09T01:55:17.449Z,100633.94
2018-09-09T01:57:45.768Z,100628.89
2018-09-09T02:00:13.907Z,100628.58
2018-09-09T02:02:41.952Z,100628.88
2018-09-09T02:05:10.068Z,100630.01
2018-09-09T02:07:38.711Z,100626.81
2018-09-09T02:10:06.767Z,100626.09
2018-09-09T02:12:34.827Z,100626.39
2018-09-09T02:15:03.759Z,100623.84
2018-09-09T02:17:31.827Z,100631.79
2018-09-09T02:19:59.949Z,100636.87
2018-09-09T02:22:29.013Z,100636.50
2018-09-09T02:24:57.110Z,100636.63
2018-09-09T02:27:25.369Z,100635.09
2018-09-09T02:29:53.441Z,100634.38
2018-09-09T02:32:21.519Z,100637.37
2018-09-09T02:34:49.913Z,100626.21
2018-09-09T02:37:17.982Z,100633.36
2018-09-09T02:39:46.128Z,100639.80
2018-09-09T02:42:14.204Z,100636.87
2018-09-09T02:44:42.311Z,100633.70
2018-09-09T02:47:10.344Z,100635.46
2018-09-09T02:49:38.388Z,100638.50
2018-09-09T02:52:06.663Z,100635.80
2018-09-09T02:54:34.802Z,100640.83
2018-09-09T02:57:02.851Z,100645.66
2018-09-09T02:59:42.117Z,100635.44
2018-09-09T03:02:23.289Z,100635.61
2018-09-09T03:04:51.551Z,100632.62
2018-09-09T03:07:19.664Z,100633.52
2018-09-09T03:09:47.930Z,100624.91
2018-09-09T03:12:16.089Z,100626.62
2018-09-09T03:14:44.551Z,100631.13
2018-09-09T03:17:12.663Z,100632.88
2018-09-09T03:19:40.701Z,100642.91
2018-09-09T03:22:08.788Z,100644.27
2018-09-09T03:24:36.947Z,100640.06
2018-09-09T03:27:05.010Z,100640.93
2018-09-09T03:29:33.124Z,100640.02
2018-09-09T03:32:01.312Z,100639.28
2018-09-09T03:34:29.454Z,100636.27
2018-09-09T03:36:57.548Z,100633.16
2018-09-09T03:39:25.619Z,100638.42
2018-09-09T03:41:54.552Z,100632.11
2018-09-09T03:44:22.639Z,100639.28
2018-09-09T03:46:50.719Z,100641.59
2018-09-09T03:49:18.822Z,100636.28
2018-09-09T03:51:46.905Z,100632.84
2018-09-09T03:54:15.039Z,100631.67
2018-09-09T03:56:43.246Z,100635.44
2018-09-09T03:59:11.221Z,100631.55
2018-09-09T04:01:39.406Z,100624.76
2018-09-09T04:04:07.505Z,100624.16
2018-09-09T04:06:35.650Z,100632.01
2018-09-09T04:09:04.781Z,100633.20
2018-09-09T04:11:32.920Z,100629.72
2018-09-09T04:14:01.045Z,100634.07
2018-09-09T04:16:29.563Z,100633.09
2018-09-09T04:18:58.796Z,100633.20
2018-09-09T04:21:27.020Z,100628.91
2018-09-09T04:23:55.146Z,100627.06
2018-09-09T04:26:23.319Z,100637.91
2018-09-09T04:28:51.419Z,100640.31
2018-09-09T04:31:19.594Z,100643.24
2018-09-09T04:33:47.723Z,100644.82
2018-09-09T04:36:15.885Z,100647.50
2018-09-09T04:38:44.051Z,100653.19
2018-09-09T04:41:12.942Z,100652.12
2018-09-09T04:43:41.635Z,100655.97
2018-09-09T04:46:10.598Z,100657.51
2018-09-09T04:48:38.859Z,100662.93
2018-09-09T04:51:06.657Z,100671.74
2018-09-09T04:53:34.829Z,100670.99
2018-09-09T04:56:03.003Z,100666.61
2018-09-09T04:58:31.273Z,100669.84
2018-09-09T05:01:00.018Z,100673.03
2018-09-09T05:03:28.142Z,100666.30
2018-09-09T05:05:56.309Z,100673.95
2018-09-09T05:08:24.492Z,100678.41
2018-09-09T05:10:52.723Z,100685.67
2018-09-09T05:13:20.881Z,100694.86
2018-09-09T05:15:49.154Z,100693.69
2018-09-09T05:18:17.421Z,100695.53
2018-09-09T05:20:45.590Z,100696.56
2018-09-09T05:23:13.931Z,100694.19
2018-09-09T05:25:42.134Z,100691.61
2018-09-09T05:28:10.254Z,100685.36
2018-09-09T05:30:38.386Z,100693.45
2018-09-09T05:33:06.601Z,100692.47
2018-09-09T05:35:34.714Z,100700.53
2018-09-09T05:38:03.875Z,100702.13
2018-09-09T05:40:32.043Z,100701.63
2018-09-09T05:43:00.190Z,100698.27
2018-09-09T05:45:28.275Z,100705.42
2018-09-09T05:47:56.435Z,100707.63
2018-09-09T05:50:24.521Z,100704.14
2018-09-09T05:52:52.619Z,100706.94
2018-09-09T05:55:20.798Z,100712.68
2018-09-09T05:57:48.978Z,100715.90
2018-09-09T06:00:16.995Z,100717.45
2018-09-09T06:02:45.111Z,100718.13
2018-09-09T06:05:13.202Z,100714.15
2018-09-09T06:07:41.334Z,100712.26
2018-09-09T06:10:09.443Z,100708.11
2018-09-09T06:12:37.649Z,100713.76
2018-09-09T06:15:06.348Z,100717.90
2018-09-09T06:17:34.450Z,100721.55
2018-09-09T06:20:02.633Z,100717.98
2018-09-09T06:22:30.741Z,100715.97
2018-09-09T06:24:58.833Z,100721.84
2018-09-09T06:27:26.951Z,100714.02
2018-09-09T06:29:54.997Z,100713.83
2018-09-09T06:32:23.142Z,100717.90
2018-09-09T06:34:51.245Z,100724.05
2018-09-09T06:37:19.488Z,100720.00
2018-09-09T06:39:47.579Z,100720.28
2018-09-09T06:42:15.792Z,100710.23
2018-09-09T06:44:44.066Z,100711.47
2018-09-09T06:47:12.678Z,100712.42
2018-09-09T06:49:41.023Z,100713.99
2018-09-09T06:52:09.519Z,100709.27
2018-09-09T06:54:37.756Z,100705.73
2018-09-09T06:57:06.005Z,100708.45
2018-09-09T06:59:34.071Z,100710.48
2018-09-09T07:02:02.167Z,100704.23
2018-09-09T07:04:30.371Z,100704.91
2018-09-09T07:06:58.454Z,100707.17
2018-09-09T07:09:26.546Z,100706.59
2018-09-09T07:11:54.797Z,100711.55
2018-09-09T07:14:22.811Z,100710.77
2018-09-09T07:16:50.930Z,100707.75
2018-09-09T07:19:19.085Z,100715.70
2018-09-09T07:21:47.180Z,100720.45
2018-09-09T07:24:15.268Z,100726.07
2018-09-09T07:26:43.402Z,100729.13
2018-09-09T07:29:12.001Z,100737.02
2018-09-09T07:31:40.177Z,100731.06
2018-09-09T07:34:08.560Z,100736.46
2018-09-09T07:36:36.689Z,100733.91
2018-09-09T07:39:06.019Z,100740.48
2018-09-09T07:41:34.150Z,100744.23
2018-09-09T07:44:02.234Z,100745.56
2018-09-09T07:46:30.692Z,100748.95
2018-09-09T07:48:58.714Z,100751.38
2018-09-09T07:51:26.861Z,100748.47
2018-09-09T07:53:55.145Z,100748.67
2018-09-09T07:56:23.279Z,100735.83
2018-09-09T07:58:51.369Z,100732.81
2018-09-09T08:01:19.462Z,100729.00
2018-09-09T08:03:47.586Z,100747.31
2018-09-09T08:06:15.837Z,100747.75
2018-09-09T08:08:43.976Z,100748.44
2018-09-09T08:11:12.165Z,100759.77
2018-09-09T08:13:40.529Z,100765.22
2018-09-09T08:16:09.100Z,100768.84
2018-09-09T08:18:37.371Z,100766.30
2018-09-09T08:21:05.564Z,100780.91
2018-09-09T08:23:33.741Z,100780.53
2018-09-09T08:26:02.075Z,100779.66
2018-09-09T08:28:30.807Z,100779.61
2018-09-09T08:30:58.907Z,100776.11
2018-09-09T08:33:26.977Z,100770.01
2018-09-09T08:35:55.056Z,100774.25
2018-09-09T08:38:23.269Z,100786.81
2018-09-09T08:40:51.342Z,100794.34
2018-09-09T08:43:19.648Z,100783.61
2018-09-09T08:45:47.778Z,100776.84
2018-09-09T08:48:15.936Z,100776.86
2018-09-09T08:50:44.022Z,100762.67
2018-09-09T08:53:12.107Z,100764.81
2018-09-09T08:55:40.194Z,100763.25
2018-09-09T08:58:08.347Z,100771.28
2018-09-09T09:00:36.593Z,100777.84
2018-09-09T09:03:04.840Z,100780.48
2018-09-09T09:05:32.927Z,100777.82
2018-09-09T09:08:01.053Z,100775.92
2018-09-09T09:10:34.494Z,100771.22
2018-09-09T09:13:02.658Z,100767.58
2018-09-09T09:15:30.943Z,100770.02
2018-09-09T09:17:59.151Z,100763.89
2018-09-09T09:20:27.300Z,100773.13
2018-09-09T09:22:57.781Z,100766.25
2018-09-09T09:25:28.358Z,100769.61
2018-09-09T09:27:57.699Z,100771.27
2018-09-09T09:30:32.426Z,100768.31
2018-09-09T09:33:10.632Z,100775.99
2018-09-09T09:35:44.274Z,100767.61
2018-09-09T09:38:12.516Z,100763.30
2018-09-09T09:40:40.635Z,100759.09
2018-09-09T09:43:08.793Z,100754.16
2018-09-09T09:45:36.931Z,100764.78
2018-09-09T09:48:05.050Z,100765.27
2018-09-09T09:50:33.256Z,100760.98
2018-09-09T09:53:01.428Z,100757.78
2018-09-09T09:55:29.547Z,100755.86
2018-09-09T09:57:58.056Z,100749.52
2018-09-09T10:00:32.641Z,100762.44
2018-09-09T10:03:01.587Z,100761.73
2018-09-09T10:05:29.695Z,100763.48
2018-09-09T10:08:00.774Z,100759.82
2018-09-09T10:10:28.871Z,100752.59
2018-09-09T10:12:57.101Z,100751.21
2018-09-09T10:15:26.575Z,100752.20
2018-09-09T10:17:54.618Z,100747.93
2018-09-09T10:20:22.824Z,100752.37
2018-09-09T10:22:50.962Z,100744.12
2018-09-09T10:25:19.008Z,100740.27
2018-09-09T10:27:47.088Z,100735.06
2018-09-09T10:30:15.285Z,100737.64
2018-09-09T10:32:43.474Z,100731.61
2018-09-09T10:35:11.590Z,100730.73
2018-09-09T10:37:39.701Z,100741.11
2018-09-09T10:40:07.897Z,100741.98
2018-09-09T10:42:35.968Z,100738.08
2018-09-09T10:45:04.175Z,100734.12
2018-09-09T10:47:32.345Z,100731.02
2018-09-09T10:50:01.463Z,100732.80
2018-09-09T10:52:30.175Z,100731.70
2018-09-09T10:54:58.403Z,100727.88
2018-09-09T10:57:27.333Z,100726.67
2018-09-09T10:59:55.539Z,100724.11
2018-09-09T11:02:24.819Z,100723.72
2018-09-09T11:04:52.983Z,100717.67
2018-09-09T11:07:21.565Z,100722.35
2018-09-09T11:09:49.744Z,100721.77
2018-09-09T11:12:17.881Z,100729.73
2018-09-09T11:14:46.026Z,100726.50
2018-09-09T11:17:14.155Z,100725.91
2018-09-09T11:19:42.278Z,100730.89
2018-09-09T11:22:10.410Z,100724.16
2018-09-09T11:24:38.637Z,100717.52
2018-09-09T11:27:06.646Z,100713.47
2018-09-09T11:29:34.754Z,100714.53
2018-09-09T11:32:02.890Z,100722.56
2018-09-09T11:34:31.528Z,100726.48
2018-09-09T11:36:59.751Z,100723.38
2018-09-09T11:39:28.184Z,100717.47
2018-09-09T11:41:56.390Z,100728.52
2018-09-09T11:44:24.515Z,100723.12
2018-09-09T11:46:52.665Z,100711.66
2018-09-09T11:49:20.805Z,100711.94
2018-09-09T11:51:48.943Z,100713.94
2018-09-09T11:54:18.497Z,100699.17
2018-09-09T11:56:46.627Z,100702.69
2018-09-09T11:59:14.761Z,100705.77
2018-09-09T12:01:43.003Z,100706.30
2018-09-09T12:04:11.111Z,100696.48
2018-09-09T12:06:39.264Z,100698.71
2018-09-09T12:09:09.288Z,100693.53
2018-09-09T12:11:37.496Z,100694.88
2018-09-09T12:14:05.800Z,100698.24
2018-09-09T12:16:33.942Z,100695.70
2018-09-09T12:19:02.501Z,100696.77
2018-09-09T12:21:30.656Z,100695.39
2018-09-09T12:23:58.782Z,100694.58
2018-09-09T12:26:26.934Z,100688.98
2018-09-09T12:28:55.110Z,100683.65
2018-09-09T12:31:23.502Z,100690.47
2018-09-09T12:33:51.579Z,100687.19
2018-09-09T12:36:19.674Z,100688.73
2018-09-09T12:38:47.800Z,100681.39
2018-09-09T12:41:15.967Z,100674.09
2018-09-09T12:43:49.290Z,100676.54
2018-09-09T12:46:22.748Z,100681.37
2018-09-09T12:48:56.094Z,100682.80
2018-09-09T12:51:24.236Z,100684.44
2018-09-09T12:53:52.323Z,100691.78
2018-09-09T12:56:20.458Z,100691.95
2018-09-09T12:58:48.538Z,100696.41
2018-09-09T13:01:16.670Z,100691.12
2018-09-09T13:03:44.798Z,100690.12
2018-09-09T13:06:13.030Z,100685.25
2018-09-09T13:08:41.145Z,100680.63
2018-09-09T13:11:09.365Z,100667.70
2018-09-09T13:13:37.739Z,100661.70
2018-09-09T13:16:06.492Z,100663.59
2018-09-09T13:18:34.596Z,100661.08
2018-09-09T13:21:02.762Z,100667.67
2018-09-09T13:23:30.949Z,100667.52
2018-09-09T13:25:59.014Z,100646.73
2018-09-09T13:28:27.103Z,100643.00
2018-09-09T13:30:55.352Z,100630.16
2018-09-09T13:33:23.522Z,100626.32
2018-09-09T13:35:51.760Z,100631.73
2018-09-09T13:38:20.117Z,100648.28
2018-09-09T13:40:48.312Z,100651.59
2018-09-09T13:43:16.678Z,100628.83
2018-09-09T13:45:44.955Z,100630.25
2018-09-09T13:48:13.140Z,100642.95
2018-09-09T13:50:41.938Z,100635.54
2018-09-09T13:53:10.100Z,100627.05
2018-09-09T13:58:14.235Z,100625.54
2018-09-09T14:00:43.602Z,100601.45
2018-09-09T14:03:11.771Z,100605.30
2018-09-09T14:05:41.562Z,100607.36
2018-09-09T14:08:09.829Z,100600.06
2018-09-09T14:10:38.057Z,100602.25
2018-09-09T14:13:06.416Z,100600.39
2018-09-09T14:15:34.974Z,100601.79
2018-09-09T14:18:03.265Z,100598.83
2018-09-09T14:20:32.247Z,100599.41
2018-09-09T14:23:00.478Z,100618.50
2018-09-09T14:25:28.686Z,100613.23
2018-09-09T14:27:56.872Z,100630.42
2018-09-09T14:30:25.792Z,100618.23
2018-09-09T14:32:54.095Z,100615.30
2018-09-09T14:35:22.255Z,100592.95
2018-09-09T14:37:50.580Z,100587.53
2018-09-09T14:40:18.803Z,100592.31
2018-09-09T14:42:47.011Z,100610.30
2018-09-09T14:45:15.462Z,100600.05
2018-09-09T14:47:44.113Z,100595.12
2018-09-09T14:50:12.299Z,100604.13
2018-09-09T14:52:40.777Z,100604.58
2018-09-09T14:55:09.021Z,100596.77
2018-09-09T14:57:37.223Z,100603.75
2018-09-09T15:00:05.331Z,100586.47
2018-09-09T15:02:33.539Z,100582.62
2018-09-09T15:09:59.500Z,100590.13
2018-09-09T15:12:27.856Z,100591.55
2018-09-09T15:14:55.970Z,100582.82
2018-09-09T15:17:24.263Z,100578.18
2018-09-09T15:19:52.500Z,100579.48
2018-09-09T15:22:20.823Z,100588.39
2018-09-09T15:24:49.926Z,100574.73
2018-09-09T15:27:18.050Z,100576.66
2018-09-09T15:29:46.458Z,100573.30
2018-09-09T15:32:14.674Z,100575.08
2018-09-09T15:34:42.783Z,100580.26
2018-09-09T15:37:10.925Z,100590.81
2018-09-09T15:39:39.097Z,100579.69
2018-09-09T15:42:07.237Z,100586.31
2018-09-09T15:44:36.851Z,100569.70
2018-09-09T15:47:05.236Z,100561.28
2018-09-09T15:49:33.454Z,100550.78
2018-09-09T15:52:01.706Z,100552.38
2018-09-09T15:54:30.111Z,100561.60
2018-09-09T15:56:58.295Z,100568.91
2018-09-09T15:59:26.439Z,100565.63
2018-09-09T16:01:54.704Z,100560.17
2018-09-09T16:04:22.861Z,100582.66
2018-09-09T16:06:51.913Z,100567.80
2018-09-09T16:09:20.227Z,100578.10
2018-09-09T16:11:48.426Z,100578.48
2018-09-09T16:14:16.530Z,100568.86
2018-09-09T16:16:44.655Z,100569.45
2018-09-09T16:19:12.762Z,100568.77
2018-09-09T16:21:41.302Z,100570.25
2018-09-09T16:24:09.403Z,100574.57
2018-09-09T16:26:37.575Z,100568.78
2018-09-09T16:29:05.713Z,100579.80
2018-09-09T16:31:33.819Z,100582.66
2018-09-09T16:34:02.983Z,100579.98
2018-09-09T16:36:31.102Z,100583.13
2018-09-09T16:38:59.331Z,100580.11
2018-09-09T16:41:27.984Z,100582.95
2018-09-09T16:43:56.250Z,100592.20
2018-09-09T16:46:24.377Z,100590.63
2018-09-09T16:48:52.485Z,100590.55
2018-09-09T16:51:20.600Z,100588.52
2018-09-09T16:53:48.732Z,100592.11
2018-09-09T16:56:16.863Z,100592.56
2018-09-09T16:58:44.974Z,100592.64
2018-09-09T17:01:13.275Z,100594.88
2018-09-09T17:03:41.426Z,100590.16
2018-09-09T17:06:09.576Z,100589.59
2018-09-09T17:08:37.771Z,100592.81
2018-09-09T17:11:06.174Z,100587.97
2018-09-09T17:13:34.322Z,100591.05
2018-09-09T17:16:03.269Z,100585.92
2018-09-09T17:18:31.426Z,100586.61
2018-09-09T17:21:00.294Z,100590.19
2018-09-09T17:23:29.001Z,100595.42
2018-09-09T17:25:58.017Z,100600.77
2018-09-09T17:28:26.148Z,100600.03
2018-09-09T17:30:55.162Z,100605.55
2018-09-09T17:33:23.361Z,100608.89
2018-09-09T17:35:52.066Z,100611.52
2018-09-09T17:38:20.274Z,100608.08
2018-09-09T17:40:48.497Z,100610.58
2018-09-09T17:43:16.610Z,100613.50
2018-09-09T17:45:44.882Z,100611.22
2018-09-09T17:48:13.096Z,100615.73
2018-09-09T17:50:41.433Z,100620.70
2018-09-09T17:53:09.570Z,100620.49
2018-09-09T17:55:37.687Z,100629.02
2018-09-09T17:58:05.777Z,100634.88
2018-09-09T18:00:33.982Z,100636.66
2018-09-09T18:03:02.901Z,100637.58
2018-09-09T18:05:31.199Z,100637.50
2018-09-09T18:07:59.326Z,100649.50
2018-09-09T18:10:27.502Z,100649.89
2018-09-09T18:12:55.622Z,100647.55
2018-09-09T18:15:23.831Z,100651.66
2018-09-09T18:17:54.968Z,100646.78
2018-09-09T18:20:23.069Z,100646.77
2018-09-09T18:22:51.355Z,100648.55
2018-09-09T18:25:19.520Z,100653.13
2018-09-09T18:27:47.798Z,100654.39
2018-09-09T18:30:15.937Z,100653.53
2018-09-09T18:32:44.021Z,100656.21
2018-09-09T18:35:12.206Z,100653.66
2018-09-09T18:37:40.283Z,100651.09
2018-09-09T18:40:08.608Z,100648.11
2018-09-09T18:42:36.695Z,100645.09
2018-09-09T18:45:06.213Z,100650.80
2018-09-09T18:47:34.245Z,100655.66
2018-09-09T18:50:02.627Z,100652.09
2018-09-09T18:52:30.745Z,100652.98
2018-09-09T18:54:58.841Z,100656.54
2018-09-09T18:57:27.062Z,100652.23
2018-09-09T18:59:57.886Z,100661.77
2018-09-09T19:02:26.027Z,100645.71
2018-09-09T19:04:54.231Z,100652.64
2018-09-09T19:07:22.313Z,100657.00
2018-09-09T19:09:50.473Z,100659.17
2018-09-09T19:12:18.616Z,100660.05
2018-09-09T19:14:46.975Z,100664.41
2018-09-09T19:17:15.168Z,100663.96
2018-09-09T19:19:43.410Z,100659.63
2018-09-09T19:22:11.550Z,100665.27
2018-09-09T19:24:39.637Z,100657.02
2018-09-09T19:27:07.758Z,100655.73
2018-09-09T19:29:36.129Z,100664.30
2018-09-09T19:32:04.396Z,100669.95
2018-09-09T19:34:32.631Z,100671.69
2018-09-09T19:37:00.686Z,100672.09
2018-09-09T19:39:28.783Z,100674.31
2018-09-09T19:41:56.901Z,100672.13
2018-09-09T19:44:25.366Z,100669.91
2018-09-09T19:46:53.446Z,100672.05
2018-09-09T19:49:21.683Z,100671.59
2018-09-09T19:51:49.939Z,100681.02
2018-09-09T19:54:18.044Z,100681.49
2018-09-09T19:56:46.149Z,100681.84
2018-09-09T19:59:14.251Z,100673.28
2018-09-09T20:01:42.351Z,100675.84
2018-09-09T20:04:10.626Z,100676.28
2018-09-09T20:06:38.986Z,100675.33
2018-09-09T20:09:07.838Z,100674.02
2018-09-09T20:11:36.051Z,100670.40
2018-09-09T20:14:04.254Z,100677.77
2018-09-09T20:16:32.359Z,100676.09
2018-09-09T20:19:00.470Z,100678.27
2018-09-09T20:21:28.680Z,100685.39
2018-09-09T20:23:56.774Z,100680.66
2018-09-09T20:26:24.989Z,100689.33
2018-09-09T20:28:53.140Z,100681.05
2018-09-09T20:31:21.260Z,100689.75
2018-09-09T20:33:49.375Z,100687.20
2018-09-09T20:36:17.473Z,100688.83
2018-09-09T20:41:12.911Z,100691.45
2018-09-09T20:43:41.019Z,100693.48
2018-09-09T20:46:09.214Z,100695.17
2018-09-09T20:48:37.673Z,100700.70
2018-09-09T20:51:05.807Z,100696.81
2018-09-09T20:53:34.302Z,100697.02
2018-09-09T20:56:02.440Z,100697.95
2018-09-09T20:58:30.575Z,100700.91
2018-09-09T21:00:58.855Z,100697.04
2018-09-09T21:03:26.969Z,100696.73
2018-09-09T21:05:55.147Z,100701.76
2018-09-09T21:08:23.281Z,100705.05
2018-09-09T21:10:51.600Z,100708.68
2018-09-09T21:13:20.265Z,100706.41
2018-09-09T21:15:48.369Z,100705.75
2018-09-09T21:18:16.645Z,100705.69
2018-09-09T21:20:44.981Z,100710.16
2018-09-09T21:23:13.176Z,100704.23
2018-09-09T21:25:41.371Z,100707.59
2018-09-09T21:28:09.507Z,100707.89
2018-09-09T21:30:37.721Z,100707.16
2018-09-09T21:33:06.029Z,100708.34
2018-09-09T21:35:34.577Z,100705.78
2018-09-09T21:38:02.831Z,100713.11
2018-09-09T21:40:30.926Z,100709.13
2018-09-09T21:42:59.124Z,100709.48
2018-09-09T21:45:27.222Z,100711.23
2018-09-09T21:47:55.362Z,100715.57
2018-09-09T21:50:23.542Z,100718.94
2018-09-09T21:52:51.653Z,100720.95
2018-09-09T21:55:19.792Z,100714.84
2018-09-09T21:57:47.962Z,100713.81
2018-09-09T22:00:16.071Z,100712.06
2018-09-09T22:02:44.212Z,100710.05
2018-09-09T22:05:12.896Z,100706.28
2018-09-09T22:07:41.115Z,100708.55
2018-09-09T22:10:09.210Z,100707.53
2018-09-09T22:12:37.467Z,100704.87
2018-09-09T22:15:06.301Z,100704.36
2018-09-09T22:17:34.777Z,100704.98
2018-09-09T22:20:03.047Z,100704.03
2018-09-09T22:22:31.702Z,100706.25
2018-09-09T22:24:59.799Z,100704.75
2018-09-09T22:27:28.240Z,100710.41
2018-09-09T22:29:57.516Z,100714.13
2018-09-09T22:32:26.425Z,100711.16
2018-09-09T22:34:56.070Z,100712.05
2018-09-09T22:37:24.137Z,100710.90
2018-09-09T22:39:52.449Z,100711.42
2018-09-09T22:42:20.658Z,100712.01
2018-09-09T22:44:48.744Z,100708.66
2018-09-09T22:47:17.690Z,100708.97
2018-09-09T22:49:46.551Z,100706.00
2018-09-09T22:52:15.011Z,100710.20
2018-09-09T22:54:43.210Z,100709.34
2018-09-09T22:57:11.843Z,100708.31
2018-09-09T22:59:39.953Z,100715.23
2018-09-09T23:02:08.578Z,100711.55
2018-09-09T23:04:36.705Z,100708.66
2018-09-09T23:07:04.791Z,100708.00
2018-09-09T23:09:33.181Z,100708.41
2018-09-09T23:12:01.811Z,100707.11
2018-09-09T23:14:30.643Z,100713.38
2018-09-09T23:16:58.807Z,100713.53
2018-09-09T23:19:27.110Z,100714.17
2018-09-09T23:21:55.297Z,100711.56
2018-09-09T23:24:25.381Z,100708.72
2018-09-09T23:26:53.515Z,100709.52
2018-09-09T23:29:22.467Z,100704.13
2018-09-09T23:31:50.624Z,100702.47
2018-09-09T23:34:20.096Z,100701.18
2018-09-09T23:36:48.180Z,100701.07
2018-09-09T23:39:16.298Z,100701.11
2018-09-09T23:41:44.402Z,100707.25
2018-09-09T23:44:13.629Z,100710.17
2018-09-09T23:46:41.708Z,100709.24
2018-09-09T23:49:09.951Z,100714.23
2018-09-09T23:51:38.117Z,100714.05
2018-09-09T23:54:07.418Z,100711.08
2018-09-09T23:56:39.703Z,100715.92
2018-09-09T23:59:07.899Z,100720.38
